createdAt,value
2018-11-25T00:00:14.584Z,0
2018-11-25T00:01:14.574Z,0
2018-11-25T00:02:14.562Z,0
2018-11-25T00:03:14.545Z,0
2018-11-25T00:04:14.532Z,0
2018-11-25T00:05:14.524Z,0
2018-11-25T00:06:14.520Z,0
2018-11-25T00:07:14.496Z,0
2018-11-25T00:08:14.479Z,0
2018-11-25T00:09:14.522Z,0
2018-11-25T00:10:14.456Z,0
2018-11-25T00:11:14.447Z,0
2018-11-25T00:12:14.434Z,0
2018-11-25T00:13:15.229Z,0
2018-11-25T00:14:14.407Z,0
2018-11-25T00:15:14.164Z,0
2018-11-25T00:16:14.382Z,0
2018-11-25T00:17:14.369Z,0
2018-11-25T00:18:14.362Z,0
2018-11-25T00:19:14.344Z,0
2018-11-25T00:20:14.339Z,0
2018-11-25T00:21:14.321Z,0
2018-11-25T00:22:14.305Z,0
2018-11-25T00:23:14.296Z,0
2018-11-25T00:24:14.289Z,0
2018-11-25T00:25:14.274Z,0
2018-11-25T00:26:14.255Z,0
2018-11-25T00:27:14.240Z,0
2018-11-25T00:28:14.224Z,0
2018-11-25T00:29:14.223Z,0
2018-11-25T00:30:13.970Z,0
2018-11-25T00:31:19.196Z,0
2018-11-25T00:32:14.175Z,0
2018-11-25T00:33:14.162Z,0
2018-11-25T00:34:14.190Z,0
2018-11-25T00:35:14.632Z,0
2018-11-25T00:36:14.123Z,0
2018-11-25T00:37:14.113Z,0
2018-11-25T00:38:14.106Z,0
2018-11-25T00:39:13.844Z,0
2018-11-25T00:40:14.083Z,0
2018-11-25T00:41:13.817Z,0
2018-11-25T00:42:14.043Z,0
2018-11-25T00:43:14.035Z,0
2018-11-25T00:44:14.021Z,0
2018-11-25T00:45:13.784Z,0
2018-11-25T00:46:14.020Z,0
2018-11-25T00:47:13.797Z,0
2018-11-25T00:48:13.972Z,0
2018-11-25T00:49:13.958Z,0
2018-11-25T00:50:13.697Z,0
2018-11-25T00:51:13.929Z,0
2018-11-25T00:52:13.915Z,0
2018-11-25T00:53:13.902Z,0
2018-11-25T00:54:14.159Z,0
2018-11-25T00:55:13.878Z,0
2018-11-25T00:56:13.639Z,0
2018-11-25T00:57:13.865Z,0
2018-11-25T00:58:13.838Z,0
2018-11-25T00:59:13.832Z,0
2018-11-25T01:00:13.817Z,0
2018-11-25T01:01:13.803Z,0
2018-11-25T01:02:13.796Z,0
2018-11-25T01:03:13.780Z,0
2018-11-25T01:04:13.759Z,0
2018-11-25T01:05:13.745Z,0
2018-11-25T01:06:13.739Z,0
2018-11-25T01:07:13.724Z,0
2018-11-25T01:08:13.712Z,0
2018-11-25T01:09:13.693Z,0
2018-11-25T01:10:13.681Z,0
2018-11-25T01:11:13.664Z,0
2018-11-25T01:12:13.659Z,0
2018-11-25T01:13:13.645Z,0
2018-11-25T01:14:13.632Z,0
2018-11-25T01:15:13.390Z,0
2018-11-25T01:16:13.611Z,0
2018-11-25T01:17:13.593Z,0
2018-11-25T01:18:13.576Z,0
2018-11-25T01:19:13.566Z,0
2018-11-25T01:20:13.553Z,0
2018-11-25T01:21:13.535Z,0
2018-11-25T01:22:13.519Z,0
2018-11-25T01:23:13.511Z,0
2018-11-25T01:24:13.263Z,0
2018-11-25T01:25:13.491Z,0
2018-11-25T01:26:13.474Z,0
2018-11-25T01:27:13.459Z,0
2018-11-25T01:28:13.447Z,0
2018-11-25T01:29:13.433Z,0
2018-11-25T01:30:13.424Z,0
2018-11-25T01:31:13.419Z,0
2018-11-25T01:32:13.406Z,0
2018-11-25T01:33:13.384Z,0
2018-11-25T01:34:13.369Z,0
2018-11-25T01:35:13.354Z,0
2018-11-25T01:36:13.348Z,0
2018-11-25T01:37:13.331Z,0
2018-11-25T01:38:13.318Z,0
2018-11-25T01:39:13.311Z,0
2018-11-25T01:40:13.309Z,0
2018-11-25T01:41:13.279Z,0
2018-11-25T01:42:13.270Z,0
2018-11-25T01:43:13.250Z,0
2018-11-25T01:44:13.235Z,0
2018-11-25T01:45:13.227Z,0
2018-11-25T01:46:13.220Z,0
2018-11-25T01:47:13.207Z,0
2018-11-25T01:48:13.188Z,0
2018-11-25T01:49:13.229Z,0
2018-11-25T01:50:13.171Z,0
2018-11-25T01:51:13.155Z,0
2018-11-25T01:52:13.139Z,0
2018-11-25T01:53:13.156Z,0
2018-11-25T01:54:13.122Z,0
2018-11-25T01:55:12.862Z,0
2018-11-25T01:56:13.082Z,0
2018-11-25T01:57:13.077Z,0
2018-11-25T01:58:13.058Z,0
2018-11-25T01:59:13.056Z,0
2018-11-25T02:00:13.029Z,0
2018-11-25T02:01:13.026Z,0
2018-11-25T02:02:13.015Z,0
2018-11-25T02:03:12.994Z,0
2018-11-25T02:04:12.999Z,0
2018-11-25T02:05:12.976Z,0
2018-11-25T02:06:12.965Z,0
2018-11-25T02:07:12.700Z,0
2018-11-25T02:08:12.930Z,0
2018-11-25T02:09:12.918Z,0
2018-11-25T02:10:12.908Z,0
2018-11-25T02:11:12.912Z,0
2018-11-25T02:12:12.889Z,0
2018-11-25T02:13:12.871Z,0
2018-11-25T02:14:12.862Z,0
2018-11-25T02:15:12.846Z,0
2018-11-25T02:16:12.833Z,0
2018-11-25T02:17:12.814Z,0
2018-11-25T02:18:12.812Z,0
2018-11-25T02:19:12.789Z,0
2018-11-25T02:20:12.776Z,0
2018-11-25T02:21:12.777Z,0
2018-11-25T02:22:12.750Z,0
2018-11-25T02:23:12.740Z,0
2018-11-25T02:24:12.728Z,0
2018-11-25T02:25:12.725Z,0
2018-11-25T02:26:12.706Z,0
2018-11-25T02:27:12.685Z,0
2018-11-25T02:28:12.437Z,0
2018-11-25T02:29:12.666Z,0
2018-11-25T02:30:12.652Z,0
2018-11-25T02:31:12.653Z,0
2018-11-25T02:32:12.650Z,0
2018-11-25T02:33:12.612Z,0
2018-11-25T02:34:12.597Z,0
2018-11-25T02:35:12.380Z,0
2018-11-25T02:36:12.579Z,0
2018-11-25T02:37:12.556Z,0
2018-11-25T02:38:12.306Z,0
2018-11-25T02:39:12.539Z,0
2018-11-25T02:40:12.518Z,0
2018-11-25T02:41:12.513Z,0
2018-11-25T02:42:12.500Z,0
2018-11-25T02:43:12.489Z,0
2018-11-25T02:44:12.473Z,0
2018-11-25T02:45:12.460Z,0
2018-11-25T02:46:12.446Z,0
2018-11-25T02:47:12.439Z,0
2018-11-25T02:48:12.419Z,0
2018-11-25T02:49:12.418Z,0
2018-11-25T02:50:12.392Z,0
2018-11-25T02:51:12.381Z,0
2018-11-25T02:52:12.366Z,0
2018-11-25T02:53:12.363Z,0
2018-11-25T02:54:12.338Z,0
2018-11-25T02:55:12.335Z,0
2018-11-25T02:56:12.318Z,0
2018-11-25T02:57:12.301Z,0
2018-11-25T02:58:12.292Z,0
2018-11-25T02:59:12.287Z,0
2018-11-25T03:00:12.264Z,0
2018-11-25T03:01:12.262Z,0
2018-11-25T03:02:12.255Z,0
2018-11-25T03:03:12.237Z,0
2018-11-25T03:04:12.212Z,0
2018-11-25T03:05:12.212Z,0
2018-11-25T03:06:12.189Z,0
2018-11-25T03:07:12.190Z,0
2018-11-25T03:08:12.176Z,0
2018-11-25T03:09:12.166Z,0
2018-11-25T03:10:12.140Z,0
2018-11-25T03:11:12.135Z,0
2018-11-25T03:12:12.109Z,0
2018-11-25T03:13:12.099Z,0
2018-11-25T03:14:12.093Z,0
2018-11-25T03:15:12.079Z,0
2018-11-25T03:16:12.056Z,0
2018-11-25T03:17:12.060Z,0
2018-11-25T03:18:12.054Z,0
2018-11-25T03:19:12.032Z,0
2018-11-25T03:20:12.027Z,0
2018-11-25T03:21:11.994Z,0
2018-11-25T03:22:11.745Z,0
2018-11-25T03:23:11.967Z,0
2018-11-25T03:24:11.727Z,0
2018-11-25T03:25:11.954Z,0
2018-11-25T03:26:11.939Z,0
2018-11-25T03:27:11.674Z,0
2018-11-25T03:28:11.901Z,0
2018-11-25T03:29:11.899Z,0
2018-11-25T03:30:11.883Z,0
2018-11-25T03:31:11.870Z,0
2018-11-25T03:32:11.859Z,0
2018-11-25T03:33:11.849Z,0
2018-11-25T03:34:11.833Z,0
2018-11-25T03:35:11.827Z,0
2018-11-25T03:36:11.805Z,0
2018-11-25T03:37:11.796Z,0
2018-11-25T03:38:11.791Z,0
2018-11-25T03:39:11.769Z,0
2018-11-25T03:40:11.761Z,0
2018-11-25T03:41:11.741Z,0
2018-11-25T03:42:11.736Z,0
2018-11-25T03:43:11.720Z,0
2018-11-25T03:44:11.711Z,0
2018-11-25T03:45:11.447Z,0
2018-11-25T03:46:11.692Z,0
2018-11-25T03:47:11.668Z,0
2018-11-25T03:48:11.651Z,0
2018-11-25T03:49:11.644Z,0
2018-11-25T03:50:11.633Z,0
2018-11-25T03:51:11.615Z,0
2018-11-25T03:52:11.603Z,0
2018-11-25T03:53:11.588Z,0
2018-11-25T03:54:11.581Z,0
2018-11-25T03:55:11.571Z,0
2018-11-25T03:56:11.563Z,0
2018-11-25T03:57:11.537Z,0
2018-11-25T03:58:11.530Z,0
2018-11-25T03:59:11.512Z,0
2018-11-25T04:00:11.259Z,0
2018-11-25T04:01:11.503Z,0
2018-11-25T04:02:11.475Z,0
2018-11-25T04:03:11.471Z,0
2018-11-25T04:04:11.448Z,0
2018-11-25T04:05:11.448Z,0
2018-11-25T04:06:11.187Z,0
2018-11-25T04:07:11.419Z,0
2018-11-25T04:08:11.416Z,0
2018-11-25T04:09:11.392Z,0
2018-11-25T04:10:11.377Z,0
2018-11-25T04:11:11.366Z,0
2018-11-25T04:12:11.344Z,0
2018-11-25T04:13:11.330Z,0
2018-11-25T04:14:11.318Z,0
2018-11-25T04:15:11.315Z,0
2018-11-25T04:16:11.299Z,0
2018-11-25T04:17:11.280Z,0
2018-11-25T04:18:11.277Z,0
2018-11-25T04:19:11.255Z,0
2018-11-25T04:20:11.256Z,0
2018-11-25T04:21:11.237Z,0
2018-11-25T04:22:11.228Z,0
2018-11-25T04:23:11.207Z,0
2018-11-25T04:24:11.194Z,0
2018-11-25T04:25:11.186Z,0
2018-11-25T04:26:11.167Z,0
2018-11-25T04:27:11.230Z,0
2018-11-25T04:28:11.147Z,0
2018-11-25T04:29:11.143Z,0
2018-11-25T04:30:11.142Z,0
2018-11-25T04:31:11.107Z,0
2018-11-25T04:32:11.091Z,0
2018-11-25T04:33:11.084Z,0
2018-11-25T04:34:11.072Z,0
2018-11-25T04:35:11.064Z,0
2018-11-25T04:36:11.046Z,0
2018-11-25T04:37:11.038Z,0
2018-11-25T04:38:11.014Z,0
2018-11-25T04:39:11.006Z,0
2018-11-25T04:40:10.988Z,0
2018-11-25T04:41:10.978Z,0
2018-11-25T04:42:10.964Z,0
2018-11-25T04:43:10.950Z,0
2018-11-25T04:44:10.937Z,0
2018-11-25T04:45:10.953Z,0
2018-11-25T04:46:10.917Z,0
2018-11-25T04:47:10.907Z,0
2018-11-25T04:48:10.890Z,0
2018-11-25T04:49:10.880Z,0
2018-11-25T04:50:10.877Z,0
2018-11-25T04:51:10.849Z,0
2018-11-25T04:52:10.833Z,0
2018-11-25T04:53:10.827Z,0
2018-11-25T04:54:10.809Z,0
2018-11-25T04:55:10.817Z,0
2018-11-25T04:56:10.783Z,0
2018-11-25T04:57:10.770Z,0
2018-11-25T04:58:10.769Z,0
2018-11-25T04:59:10.508Z,0
2018-11-25T05:00:10.750Z,0
2018-11-25T05:01:10.731Z,0
2018-11-25T05:02:10.708Z,0
2018-11-25T05:03:10.695Z,0
2018-11-25T05:04:10.682Z,0
2018-11-25T05:05:10.682Z,0
2018-11-25T05:06:10.659Z,0
2018-11-25T05:07:10.649Z,0
2018-11-25T05:08:10.634Z,0
2018-11-25T05:09:10.626Z,0
2018-11-25T05:10:10.611Z,0
2018-11-25T05:11:10.595Z,0
2018-11-25T05:12:10.341Z,0
2018-11-25T05:13:10.575Z,0
2018-11-25T05:14:10.556Z,0
2018-11-25T05:15:10.548Z,0
2018-11-25T05:16:10.530Z,0
2018-11-25T05:17:10.519Z,0
2018-11-25T05:18:10.531Z,0
2018-11-25T05:19:10.495Z,0
2018-11-25T05:20:10.483Z,0
2018-11-25T05:21:10.479Z,0
2018-11-25T05:22:10.457Z,0
2018-11-25T05:23:10.446Z,0
2018-11-25T05:24:10.434Z,0
2018-11-25T05:25:10.421Z,0
2018-11-25T05:26:10.407Z,0
2018-11-25T05:27:10.852Z,0
2018-11-25T05:28:10.389Z,0
2018-11-25T05:29:10.376Z,0
2018-11-25T05:30:10.358Z,0
2018-11-25T05:31:10.350Z,0
2018-11-25T05:32:10.335Z,0
2018-11-25T05:33:10.318Z,0
2018-11-25T05:34:10.306Z,0
2018-11-25T05:35:10.292Z,0
2018-11-25T05:36:10.349Z,0
2018-11-25T05:37:10.274Z,0
2018-11-25T05:38:10.253Z,0
2018-11-25T05:39:10.240Z,0
2018-11-25T05:40:10.235Z,0
2018-11-25T05:41:10.216Z,0
2018-11-25T05:42:10.205Z,0
2018-11-25T05:43:10.193Z,0
2018-11-25T05:44:10.187Z,0
2018-11-25T05:45:10.219Z,0
2018-11-25T05:46:10.157Z,0
2018-11-25T05:47:10.142Z,0
2018-11-25T05:48:10.133Z,0
2018-11-25T05:49:10.119Z,0
2018-11-25T05:50:09.861Z,0
2018-11-25T05:51:10.411Z,0
2018-11-25T05:52:10.076Z,0
2018-11-25T05:53:09.832Z,0
2018-11-25T05:54:10.049Z,0
2018-11-25T05:55:10.039Z,0
2018-11-25T05:56:10.026Z,0
2018-11-25T05:57:10.017Z,0
2018-11-25T05:58:09.767Z,0
2018-11-25T05:59:09.996Z,0
2018-11-25T06:00:09.986Z,0
2018-11-25T06:01:09.964Z,0
2018-11-25T06:02:09.956Z,0
2018-11-25T06:03:09.707Z,0
2018-11-25T06:04:09.924Z,0
2018-11-25T06:05:09.920Z,0
2018-11-25T06:06:09.913Z,0
2018-11-25T06:07:09.891Z,0
2018-11-25T06:08:09.630Z,0
2018-11-25T06:09:09.869Z,0
2018-11-25T06:10:09.621Z,0
2018-11-25T06:11:09.850Z,0
2018-11-25T06:12:09.852Z,0
2018-11-25T06:13:09.819Z,0
2018-11-25T06:14:09.809Z,0
2018-11-25T06:15:09.784Z,0
2018-11-25T06:16:09.775Z,0
2018-11-25T06:17:09.767Z,0
2018-11-25T06:18:09.754Z,0
2018-11-25T06:19:09.749Z,0
2018-11-25T06:20:09.725Z,0
2018-11-25T06:21:09.717Z,0
2018-11-25T06:22:09.704Z,0
2018-11-25T06:23:09.705Z,0
2018-11-25T06:24:09.673Z,0
2018-11-25T06:25:09.707Z,0
2018-11-25T06:26:09.649Z,0
2018-11-25T06:27:09.637Z,0
2018-11-25T06:28:09.623Z,0
2018-11-25T06:29:09.606Z,0
2018-11-25T06:30:09.600Z,0
2018-11-25T06:31:09.588Z,0
2018-11-25T06:32:09.581Z,0
2018-11-25T06:33:09.575Z,0
2018-11-25T06:34:09.553Z,0
2018-11-25T06:35:09.538Z,0
2018-11-25T06:36:09.522Z,0
2018-11-25T06:37:09.514Z,0
2018-11-25T06:38:09.265Z,0
2018-11-25T06:39:09.483Z,0
2018-11-25T06:40:09.491Z,0
2018-11-25T06:41:09.469Z,0
2018-11-25T06:42:09.460Z,5
2018-11-25T06:43:09.434Z,5
2018-11-25T06:44:09.429Z,5
2018-11-25T06:45:09.410Z,5
2018-11-25T06:46:09.396Z,5
2018-11-25T06:47:09.391Z,5
2018-11-25T06:48:09.378Z,5
2018-11-25T06:49:09.358Z,5
2018-11-25T06:50:09.349Z,5
2018-11-25T06:51:09.340Z,5
2018-11-25T06:52:09.317Z,5
2018-11-25T06:53:09.302Z,5
2018-11-25T06:54:09.316Z,10
2018-11-25T06:55:09.291Z,10
2018-11-25T06:56:09.035Z,10
2018-11-25T06:57:09.269Z,10
2018-11-25T06:58:09.013Z,10
2018-11-25T06:59:09.239Z,10
2018-11-25T07:00:09.221Z,10
2018-11-25T07:01:09.208Z,10
2018-11-25T07:02:09.196Z,15
2018-11-25T07:03:09.325Z,15
2018-11-25T07:04:09.168Z,15
2018-11-25T07:05:09.160Z,15
2018-11-25T07:06:09.150Z,15
2018-11-25T07:07:09.130Z,20
2018-11-25T07:08:09.119Z,20
2018-11-25T07:09:09.861Z,20
2018-11-25T07:10:08.854Z,25
2018-11-25T07:11:09.083Z,25
2018-11-25T07:12:09.067Z,25
2018-11-25T07:13:09.061Z,30
2018-11-25T07:14:09.053Z,30
2018-11-25T07:15:09.038Z,30
2018-11-25T07:16:09.022Z,35
2018-11-25T07:17:09.002Z,35
2018-11-25T07:18:08.991Z,30
2018-11-25T07:19:08.986Z,30
2018-11-25T07:20:08.973Z,35
2018-11-25T07:21:08.963Z,35
2018-11-25T07:22:08.718Z,35
2018-11-25T07:23:08.940Z,35
2018-11-25T07:24:08.915Z,35
2018-11-25T07:25:08.950Z,35
2018-11-25T07:26:08.893Z,35
2018-11-25T07:27:08.885Z,30
2018-11-25T07:28:25.053Z,25
2018-11-25T07:29:08.859Z,25
2018-11-25T07:30:14.884Z,25
2018-11-25T07:31:08.833Z,25
2018-11-25T07:32:08.840Z,25
2018-11-25T07:33:08.817Z,25
2018-11-25T07:34:08.794Z,25
2018-11-25T07:35:08.534Z,25
2018-11-25T07:36:08.773Z,25
2018-11-25T07:37:08.766Z,25
2018-11-25T07:38:08.745Z,25
2018-11-25T07:39:08.739Z,25
2018-11-25T07:40:08.730Z,25
2018-11-25T07:41:08.719Z,25
2018-11-25T07:42:08.701Z,25
2018-11-25T07:43:08.685Z,25
2018-11-25T07:44:08.674Z,25
2018-11-25T07:45:08.726Z,30
2018-11-25T07:46:09.701Z,30
2018-11-25T07:47:08.639Z,35
2018-11-25T07:48:08.620Z,40
2018-11-25T07:49:08.611Z,45
2018-11-25T07:50:08.612Z,45
2018-11-25T07:51:08.584Z,45
2018-11-25T07:52:08.595Z,50
2018-11-25T07:53:08.562Z,50
2018-11-25T07:54:08.602Z,55
2018-11-25T07:55:08.541Z,60
2018-11-25T07:56:08.522Z,60
2018-11-25T07:57:08.526Z,60
2018-11-25T07:58:08.497Z,60
2018-11-25T07:59:08.485Z,60
2018-11-25T08:00:08.489Z,55
2018-11-25T08:01:08.471Z,60
2018-11-25T08:02:08.468Z,60
2018-11-25T08:03:08.440Z,60
2018-11-25T08:04:08.432Z,55
2018-11-25T08:05:08.412Z,55
2018-11-25T08:06:08.405Z,55
2018-11-25T08:07:08.387Z,55
2018-11-25T08:08:08.378Z,60
2018-11-25T08:09:08.371Z,60
2018-11-25T08:10:08.363Z,60
2018-11-25T08:11:08.345Z,60
2018-11-25T08:12:08.327Z,55
2018-11-25T08:13:08.320Z,55
2018-11-25T08:14:08.311Z,55
2018-11-25T08:15:08.301Z,55
2018-11-25T08:16:08.287Z,60
2018-11-25T08:17:08.271Z,60
2018-11-25T08:18:08.276Z,60
2018-11-25T08:19:08.247Z,60
2018-11-25T08:20:08.245Z,55
2018-11-25T08:21:08.217Z,55
2018-11-25T08:22:08.210Z,55
2018-11-25T08:23:08.195Z,50
2018-11-25T08:24:08.189Z,45
2018-11-25T08:25:08.171Z,45
2018-11-25T08:26:08.166Z,50
2018-11-25T08:27:07.906Z,50
2018-11-25T08:28:08.138Z,50
2018-11-25T08:29:08.123Z,50
2018-11-25T08:30:08.121Z,50
2018-11-25T08:31:08.114Z,50
2018-11-25T08:32:08.090Z,50
2018-11-25T08:33:08.090Z,50
2018-11-25T08:34:08.092Z,60
2018-11-25T08:35:08.061Z,60
2018-11-25T08:36:08.042Z,65
2018-11-25T08:37:08.031Z,65
2018-11-25T08:38:08.024Z,70
2018-11-25T08:39:08.007Z,70
2018-11-25T08:40:08.013Z,75
2018-11-25T08:41:07.987Z,85
2018-11-25T08:42:07.980Z,90
2018-11-25T08:43:07.966Z,100
2018-11-25T08:44:07.708Z,110
2018-11-25T08:45:07.941Z,120
2018-11-25T08:46:07.928Z,135
2018-11-25T08:47:07.923Z,140
2018-11-25T08:48:07.908Z,145
2018-11-25T08:49:07.893Z,140
2018-11-25T08:50:07.886Z,130
2018-11-25T08:51:07.922Z,125
2018-11-25T08:52:07.862Z,130
2018-11-25T08:53:07.849Z,135
2018-11-25T08:54:07.835Z,140
2018-11-25T08:55:07.833Z,150
2018-11-25T08:56:07.820Z,150
2018-11-25T08:57:07.799Z,150
2018-11-25T08:58:07.799Z,150
2018-11-25T08:59:07.785Z,155
2018-11-25T09:00:07.795Z,155
2018-11-25T09:01:07.758Z,150
2018-11-25T09:02:07.747Z,150
2018-11-25T09:03:07.809Z,150
2018-11-25T09:04:07.726Z,150
2018-11-25T09:05:07.716Z,150
2018-11-25T09:06:07.708Z,150
2018-11-25T09:07:07.696Z,155
2018-11-25T09:08:07.686Z,150
2018-11-25T09:09:07.671Z,150
2018-11-25T09:10:07.659Z,150
2018-11-25T09:11:07.648Z,150
2018-11-25T09:12:07.647Z,145
2018-11-25T09:13:07.627Z,135
2018-11-25T09:14:07.623Z,130
2018-11-25T09:15:07.617Z,135
2018-11-25T09:16:07.603Z,140
2018-11-25T09:17:07.588Z,145
2018-11-25T09:18:08.049Z,145
2018-11-25T09:19:07.567Z,145
2018-11-25T09:20:07.547Z,140
2018-11-25T09:21:07.577Z,135
2018-11-25T09:22:07.536Z,125
2018-11-25T09:23:07.519Z,120
2018-11-25T09:24:07.518Z,120
2018-11-25T09:25:07.500Z,125
2018-11-25T09:26:07.485Z,130
2018-11-25T09:27:07.468Z,130
2018-11-25T09:28:08.018Z,130
2018-11-25T09:29:07.452Z,135
2018-11-25T09:30:07.444Z,140
2018-11-25T09:31:07.436Z,140
2018-11-25T09:32:07.426Z,135
2018-11-25T09:33:07.433Z,130
2018-11-25T09:34:07.402Z,125
2018-11-25T09:35:07.156Z,125
2018-11-25T09:36:07.382Z,125
2018-11-25T09:37:07.369Z,125
2018-11-25T09:38:07.374Z,125
2018-11-25T09:39:07.357Z,125
2018-11-25T09:40:07.340Z,130
2018-11-25T09:41:08.617Z,130
2018-11-25T09:42:07.322Z,130
2018-11-25T09:43:07.314Z,135
2018-11-25T09:44:07.302Z,145
2018-11-25T09:45:07.289Z,155
2018-11-25T09:46:07.282Z,165
2018-11-25T09:47:07.260Z,170
2018-11-25T09:48:07.018Z,175
2018-11-25T09:49:07.244Z,175
2018-11-25T09:50:07.236Z,170
2018-11-25T09:51:07.220Z,180
2018-11-25T09:52:07.213Z,185
2018-11-25T09:53:07.219Z,190
2018-11-25T09:54:07.188Z,205
2018-11-25T09:55:07.182Z,200
2018-11-25T09:56:07.181Z,170
2018-11-25T09:57:07.165Z,170
2018-11-25T09:58:07.160Z,170
2018-11-25T09:59:07.198Z,170
2018-11-25T10:00:07.151Z,170
2018-11-25T10:01:07.173Z,170
2018-11-25T10:02:07.106Z,170
2018-11-25T10:03:07.157Z,170
2018-11-25T10:04:07.091Z,165
2018-11-25T10:05:06.871Z,165
2018-11-25T10:06:07.106Z,155
2018-11-25T10:07:07.062Z,160
2018-11-25T10:08:07.061Z,165
2018-11-25T10:09:07.035Z,165
2018-11-25T10:10:07.032Z,165
2018-11-25T10:11:06.779Z,160
2018-11-25T10:12:07.010Z,155
2018-11-25T10:13:07.005Z,155
2018-11-25T10:14:06.987Z,150
2018-11-25T10:15:06.734Z,145
2018-11-25T10:16:06.963Z,145
2018-11-25T10:17:06.950Z,155
2018-11-25T10:18:09.267Z,170
2018-11-25T10:19:06.934Z,200
2018-11-25T10:20:06.993Z,210
2018-11-25T10:21:06.909Z,210
2018-11-25T10:22:06.899Z,195
2018-11-25T10:23:06.904Z,175
2018-11-25T10:24:06.887Z,165
2018-11-25T10:25:06.878Z,165
2018-11-25T10:26:06.863Z,180
2018-11-25T10:27:06.853Z,185
2018-11-25T10:28:06.845Z,180
2018-11-25T10:29:06.832Z,170
2018-11-25T10:30:06.830Z,160
2018-11-25T10:31:06.811Z,155
2018-11-25T10:32:06.801Z,145
2018-11-25T10:33:06.790Z,135
2018-11-25T10:34:06.777Z,130
2018-11-25T10:35:06.773Z,135
2018-11-25T10:36:09.422Z,140
2018-11-25T10:37:06.801Z,145
2018-11-25T10:38:06.738Z,140
2018-11-25T10:39:06.739Z,135
2018-11-25T10:40:06.751Z,130
2018-11-25T10:41:06.719Z,135
2018-11-25T10:42:06.700Z,140
2018-11-25T10:43:06.693Z,150
2018-11-25T10:44:06.679Z,150
2018-11-25T10:45:06.670Z,150
2018-11-25T10:46:06.661Z,150
2018-11-25T10:47:06.714Z,155
2018-11-25T10:48:06.636Z,160
2018-11-25T10:49:06.630Z,160
2018-11-25T10:50:06.619Z,165
2018-11-25T10:51:06.603Z,175
2018-11-25T10:52:06.598Z,170
2018-11-25T10:53:06.602Z,165
2018-11-25T10:54:06.572Z,155
2018-11-25T10:55:06.570Z,150
2018-11-25T10:56:06.548Z,155
2018-11-25T10:57:06.550Z,160
2018-11-25T10:58:06.533Z,165
2018-11-25T10:59:06.521Z,165
2018-11-25T11:00:06.509Z,155
2018-11-25T11:01:06.501Z,145
2018-11-25T11:02:06.499Z,140
2018-11-25T11:03:06.493Z,135
2018-11-25T11:04:06.489Z,135
2018-11-25T11:05:06.471Z,135
2018-11-25T11:06:06.454Z,140
2018-11-25T11:07:06.436Z,140
2018-11-25T11:08:06.188Z,140
2018-11-25T11:09:06.432Z,140
2018-11-25T11:10:06.406Z,145
2018-11-25T11:11:06.397Z,145
2018-11-25T11:12:06.384Z,155
2018-11-25T11:13:06.373Z,165
2018-11-25T11:14:06.366Z,185
2018-11-25T11:15:06.365Z,200
2018-11-25T11:16:06.358Z,210
2018-11-25T11:17:06.335Z,200
2018-11-25T11:18:06.321Z,225
2018-11-25T11:19:06.316Z,255
2018-11-25T11:20:06.302Z,270
2018-11-25T11:21:06.297Z,285
2018-11-25T11:22:06.286Z,285
2018-11-25T11:23:06.268Z,300
2018-11-25T11:24:06.259Z,295
2018-11-25T11:25:06.256Z,280
2018-11-25T11:26:13.700Z,260
2018-11-25T11:27:06.237Z,250
2018-11-25T11:28:06.240Z,240
2018-11-25T11:29:06.215Z,230
2018-11-25T11:30:06.207Z,235
2018-11-25T11:31:13.167Z,240
2018-11-25T11:32:06.187Z,240
2018-11-25T11:33:06.186Z,240
2018-11-25T11:34:06.172Z,230
2018-11-25T11:35:06.157Z,220
2018-11-25T11:36:06.147Z,215
2018-11-25T11:37:06.134Z,200
2018-11-25T11:38:06.133Z,190
2018-11-25T11:39:05.877Z,185
2018-11-25T11:40:06.133Z,185
2018-11-25T11:41:06.101Z,185
2018-11-25T11:42:06.100Z,200
2018-11-25T11:43:06.086Z,210
2018-11-25T11:44:06.080Z,205
2018-11-25T11:45:06.078Z,195
2018-11-25T11:46:06.057Z,190
2018-11-25T11:47:06.044Z,200
2018-11-25T11:48:06.085Z,205
2018-11-25T11:49:06.038Z,200
2018-11-25T11:50:06.032Z,195
2018-11-25T11:51:06.007Z,195
2018-11-25T11:52:06.014Z,190
2018-11-25T11:53:06.004Z,185
2018-11-25T11:54:05.990Z,195
2018-11-25T11:55:06.010Z,195
2018-11-25T11:56:05.964Z,200
2018-11-25T11:57:05.964Z,210
2018-11-25T11:58:05.947Z,215
2018-11-25T11:59:05.932Z,225
2018-11-25T12:00:05.705Z,230
2018-11-25T12:01:05.924Z,235
2018-11-25T12:02:05.909Z,245
2018-11-25T12:03:05.900Z,255
2018-11-25T12:04:05.896Z,250
2018-11-25T12:05:05.889Z,235
2018-11-25T12:06:05.889Z,225
2018-11-25T12:07:05.867Z,215
2018-11-25T12:08:05.888Z,205
2018-11-25T12:09:05.846Z,205
2018-11-25T12:10:05.850Z,205
2018-11-25T12:11:05.825Z,200
2018-11-25T12:12:05.578Z,195
2018-11-25T12:13:05.806Z,195
2018-11-25T12:14:05.814Z,200
2018-11-25T12:15:05.796Z,190
2018-11-25T12:16:05.777Z,170
2018-11-25T12:17:05.770Z,165
2018-11-25T12:18:05.772Z,170
2018-11-25T12:19:05.747Z,170
2018-11-25T12:20:05.745Z,165
2018-11-25T12:21:05.730Z,165
2018-11-25T12:22:07.806Z,155
2018-11-25T12:23:05.721Z,145
2018-11-25T12:24:05.703Z,135
2018-11-25T12:25:05.464Z,130
2018-11-25T12:26:05.689Z,135
2018-11-25T12:27:05.673Z,135
2018-11-25T12:28:05.671Z,130
2018-11-25T12:29:05.654Z,125
2018-11-25T12:30:05.649Z,130
2018-11-25T12:31:06.459Z,125
2018-11-25T12:32:05.631Z,120
2018-11-25T12:33:05.618Z,115
2018-11-25T12:34:05.605Z,110
2018-11-25T12:35:05.595Z,115
2018-11-25T12:36:05.840Z,120
2018-11-25T12:37:05.586Z,125
2018-11-25T12:38:05.581Z,115
2018-11-25T12:39:05.563Z,105
2018-11-25T12:40:05.554Z,100
2018-11-25T12:41:05.538Z,105
2018-11-25T12:42:06.680Z,110
2018-11-25T12:43:05.519Z,115
2018-11-25T12:44:05.503Z,115
2018-11-25T12:45:05.498Z,115
2018-11-25T12:46:05.560Z,115
2018-11-25T12:47:05.481Z,110
2018-11-25T12:48:05.477Z,110
2018-11-25T12:49:05.453Z,110
2018-11-25T12:50:05.450Z,110
2018-11-25T12:51:05.433Z,110
2018-11-25T12:52:05.438Z,105
2018-11-25T12:53:06.762Z,100
2018-11-25T12:54:05.404Z,105
2018-11-25T12:55:05.398Z,110
2018-11-25T12:56:05.385Z,105
2018-11-25T12:57:05.375Z,105
2018-11-25T12:58:05.117Z,105
2018-11-25T12:59:05.356Z,105
2018-11-25T13:00:05.353Z,105
2018-11-25T13:01:05.338Z,105
2018-11-25T13:02:05.324Z,110
2018-11-25T13:03:05.325Z,110
2018-11-25T13:04:05.298Z,110
2018-11-25T13:05:05.048Z,110
2018-11-25T13:06:05.282Z,105
2018-11-25T13:07:05.270Z,105
2018-11-25T13:08:05.261Z,100
2018-11-25T13:09:05.256Z,95
2018-11-25T13:10:05.237Z,90
2018-11-25T13:11:05.229Z,90
2018-11-25T13:12:05.223Z,95
2018-11-25T13:13:05.209Z,95
2018-11-25T13:14:05.200Z,90
2018-11-25T13:15:05.239Z,85
2018-11-25T13:16:05.180Z,85
2018-11-25T13:17:05.173Z,85
2018-11-25T13:18:04.924Z,90
2018-11-25T13:19:05.159Z,95
2018-11-25T13:20:05.160Z,100
2018-11-25T13:21:05.126Z,85
2018-11-25T13:22:05.118Z,80
2018-11-25T13:23:05.115Z,80
2018-11-25T13:24:05.156Z,75
2018-11-25T13:25:06.367Z,75
2018-11-25T13:26:05.073Z,75
2018-11-25T13:27:05.059Z,70
2018-11-25T13:28:05.047Z,65
2018-11-25T13:29:05.036Z,65
2018-11-25T13:30:05.030Z,60
2018-11-25T13:31:05.020Z,60
2018-11-25T13:32:05.005Z,60
2018-11-25T13:33:05.002Z,60
2018-11-25T13:34:04.980Z,60
2018-11-25T13:35:04.968Z,60
2018-11-25T13:36:04.962Z,60
2018-11-25T13:37:04.947Z,60
2018-11-25T13:38:04.704Z,60
2018-11-25T13:39:04.934Z,60
2018-11-25T13:40:04.922Z,60
2018-11-25T13:41:04.927Z,60
2018-11-25T13:42:04.892Z,60
2018-11-25T13:43:04.898Z,60
2018-11-25T13:44:04.873Z,60
2018-11-25T13:45:04.867Z,60
2018-11-25T13:46:04.848Z,60
2018-11-25T13:47:04.851Z,55
2018-11-25T13:48:04.834Z,55
2018-11-25T13:49:04.821Z,55
2018-11-25T13:50:04.820Z,60
2018-11-25T13:51:04.800Z,50
2018-11-25T13:52:04.786Z,45
2018-11-25T13:53:04.777Z,45
2018-11-25T13:54:05.517Z,45
2018-11-25T13:55:04.813Z,45
2018-11-25T13:56:04.739Z,45
2018-11-25T13:57:04.735Z,45
2018-11-25T13:58:04.483Z,45
2018-11-25T13:59:04.708Z,40
2018-11-25T14:00:04.693Z,40
2018-11-25T14:01:04.683Z,35
2018-11-25T14:02:04.688Z,40
2018-11-25T14:03:04.656Z,35
2018-11-25T14:04:04.650Z,35
2018-11-25T14:05:04.639Z,35
2018-11-25T14:06:04.633Z,35
2018-11-25T14:07:04.615Z,35
2018-11-25T14:08:04.601Z,30
2018-11-25T14:09:04.792Z,30
2018-11-25T14:10:05.068Z,30
2018-11-25T14:11:04.566Z,30
2018-11-25T14:12:04.553Z,30
2018-11-25T14:13:04.601Z,30
2018-11-25T14:14:04.531Z,30
2018-11-25T14:15:04.519Z,30
2018-11-25T14:16:04.540Z,30
2018-11-25T14:17:04.499Z,25
2018-11-25T14:18:04.497Z,25
2018-11-25T14:19:04.473Z,25
2018-11-25T14:20:04.461Z,25